Aviation Digital Data Service (ADDS)

Output produced by METARs form (0941 UTC 24 March 2019)
found at http://www.aviationweather.gov/metar/data/
 
Forecast for: PGSN (SAIPAN/KOBLER , FM)
Text: PGSN 240526Z 2406/2506 06015G22KT P6SM VCSH SCT015 BKN035
Forecast period: 0600 UTC 24 March 2019 to 0600 UTC 25 March 2019
Forecast type: FROM: standard forecast or significant change
Winds: from the ENE (60 degrees) at 17 MPH (15 knots; 7.7 m/s)
gusting to 25 MPH (22 knots; 11.3 m/s)
Visibility: 6 or more miles 10+ km)
Ceiling: 3500 feet AGL
Clouds: scattered clouds at 1500 feet AGL
broken clouds at 3500 feet AGL
Weather: VCSH  (showers in vicinity)
Text: TEMPO 2406/2408 4SM SHRA SCT015 OVC025
Forecast period: 0600 to 0800 UTC 24 March 2019
Forecast type: TEMPORARY: The following changes expected for less than half the time period
Visibility: 4 miles (6 km)
Ceiling: 2500 feet AGL
Clouds: scattered clouds at 1500 feet AGL
overcast cloud deck at 2500 feet AGL
Weather: SHRA  (rain showers)